Cardedeu, Spain
Current Conditions -  °F | °C
As of 2:00 PM on Thursday 27 Nov 2014 (Local Time) from LELL Reporting Station
Scattered Clouds Scattered Clouds  
Wind Chill: 15°   Ceiling: Unl
Heat Index: 15°   Visibility: 5mi
Dew Point: 12°   Wind: 2mph
Humidity: 82%   Direction: NA
Pressure: 29.68"   Gusts: NA
Location:  41.64°N, 2.36°E
Report Text: LELL 271300Z VRB02KT 8000 FEW015 SCT035 15/12 Q1005
Loading
Personal Weather Stations






























Interactive Weather Map New forecast layout! Learn more

10-Day Weather Forecast

Advertisements
Track Severe Weather on mobile